キングストン の空港の天気 - METARとTAF

ノーマン・マンレー国際空港 ( MKJP / KIN ) - ジャマイカ キングストン
飛行場実況気象(Metar)
観測時間01/24 07:00 EST (01/24 12:00 UTC)
風向・風速北北西 5m/s
視程10km以上
天気現象
全天の4割程度の雲 雲底高度 670m
気温23℃
湿度69%
気圧1013hPa
METARMKJP 241200Z 34009KT 9999 SCT022 23/17 Q1013
過去の天気等 Google飛行場航空写真 Wunderground天気予報

過去48時間のMETAR

飛行場予報(TAF)
発表時間: 1/24 06:15 EST (1/24 11:15 UTC)
予報対象時間: 24日7時 EST ~ 25日7時 EST
風向・風速北 5m/s
視程10km以上
少しの雲 雲底高度 610m
24日10時 EST ~ 24日12時 EST に徐々に
風向・風速南南東 6m/s
少しの雲 雲底高度 670m
全天の4割程度の雲 雲底高度 1100m
24日20時 EST ~ 24日22時 EST に徐々に
風向・風速北 3m/s
少しの雲 雲底高度 670m
TAF MKJP 241115Z 2412/2512 35009KT 9999 FEW020
BECMG 2415/2417 16012KT FEW022 SCT036
BECMG 2501/2503 36005KT FEW022